Time;durP1;ratioP1;P1;durP2;ratioP2;P2;SDS_P1;SDS_P2;PMS_P1;PMS_P2;Temp;Humidity;BMP_temperature;BMP_pressure;BME280_temperature;BME280_humidity;BME280_pressure;Samples;Min_cycle;Max_cycle;Signal;HPM_P1;HPM_P2
2023/03/09 00:00:32;;;;;;;18.67;10.80;;;1.50;99.90;;;;;;5126252;27;20509;-85
2023/03/09 00:02:58;;;;;;;19.47;10.30;;;1.50;99.90;;;;;;5088055;28;20080;-85
2023/03/09 00:05:24;;;;;;;18.13;10.47;;;1.50;99.90;;;;;;5088845;28;20044;-85
2023/03/09 00:07:50;;;;;;;20.90;11.27;;;1.50;99.90;;;;;;5128714;27;20487;-85
2023/03/09 00:10:15;;;;;;;19.10;10.60;;;1.50;99.90;;;;;;5131300;27;20036;-85
2023/03/09 00:12:42;;;;;;;18.77;10.40;;;1.50;99.90;;;;;;5101391;28;20122;-85
2023/03/09 00:15:09;;;;;;;19.43;10.77;;;1.50;99.90;;;;;;5106226;27;20039;-85
2023/03/09 00:17:35;;;;;;;18.87;9.43;;;1.50;99.90;;;;;;5104947;28;20043;-85
2023/03/09 00:20:14;;;;;;;20.27;10.10;;;2.20;99.90;;;;;;5119085;27;20043;-85
2023/03/09 00:22:41;;;;;;;18.23;10.20;;;1.50;99.90;;;;;;5088786;28;20024;-85
2023/03/09 00:25:07;;;;;;;18.10;10.03;;;1.50;99.90;;;;;;5106007;28;20031;-85
2023/03/09 00:27:33;;;;;;;18.70;10.63;;;1.50;99.90;;;;;;5113761;27;20039;-84
2023/03/09 00:29:58;;;;;;;18.40;10.00;;;1.50;99.90;;;;;;5105283;28;20526;-85
2023/03/09 00:32:24;;;;;;;19.23;10.00;;;1.50;99.90;;;;;;5112307;28;20039;-85
2023/03/09 00:34:49;;;;;;;21.77;11.00;;;1.40;99.90;;;;;;5089025;28;20410;-85
2023/03/09 00:37:15;;;;;;;17.47;8.97;;;1.40;99.90;;;;;;5131704;27;20513;-85
2023/03/09 00:39:40;;;;;;;16.10;9.30;;;1.40;99.90;;;;;;5100235;28;20035;-85
2023/03/09 00:42:06;;;;;;;16.70;9.63;;;1.40;99.90;;;;;;5116607;27;20050;-85
2023/03/09 00:44:32;;;;;;;14.53;9.00;;;1.40;99.90;;;;;;5105445;27;20028;-85
2023/03/09 00:46:57;;;;;;;16.20;9.27;;;1.40;99.90;;;;;;5097109;28;20036;-85
2023/03/09 00:49:23;;;;;;;15.90;8.87;;;1.30;99.90;;;;;;5110834;27;20040;-84
2023/03/09 00:51:48;;;;;;;18.20;9.43;;;1.30;99.90;;;;;;5117974;27;20028;-85
2023/03/09 00:54:14;;;;;;;15.53;9.40;;;1.30;99.90;;;;;;5116606;27;20051;-85
2023/03/09 00:56:40;;;;;;;21.87;9.27;;;1.30;99.90;;;;;;5093493;28;20086;-86
2023/03/09 00:59:06;;;;;;;16.10;9.20;;;1.30;99.90;;;;;;5093937;28;20050;-85
2023/03/09 01:01:32;;;;;;;15.10;9.20;;;1.20;99.90;;;;;;5112137;28;20036;-85
2023/03/09 01:03:57;;;;;;;15.63;9.27;;;1.20;99.90;;;;;;5139959;27;20032;-85
2023/03/09 01:06:24;;;;;;;16.47;9.20;;;1.10;99.90;;;;;;5107829;27;20058;-85
2023/03/09 01:08:50;;;;;;;17.63;9.03;;;1.10;99.90;;;;;;5111547;28;20439;-84
2023/03/09 01:11:17;;;;;;;14.97;8.80;;;1.10;99.90;;;;;;5112735;27;20039;-84
2023/03/09 01:13:43;;;;;;;15.47;9.37;;;1.00;99.90;;;;;;5089488;28;20383;-85
2023/03/09 01:16:09;;;;;;;17.40;9.80;;;1.00;99.90;;;;;;5096449;28;20044;-85
2023/03/09 01:18:35;;;;;;;16.50;9.57;;;1.00;99.90;;;;;;5106948;27;20422;-85
2023/03/09 01:21:00;;;;;;;17.30;9.40;;;0.90;99.90;;;;;;5115433;27;20115;-85
2023/03/09 01:23:27;;;;;;;16.30;9.53;;;0.90;99.90;;;;;;5113824;27;20212;-85
2023/03/09 01:25:52;;;;;;;16.67;9.73;;;0.80;99.90;;;;;;5089450;28;20043;-85
2023/03/09 01:28:18;;;;;;;15.33;9.33;;;0.80;99.90;;;;;;5109997;27;20438;-85
2023/03/09 01:30:43;;;;;;;16.27;9.13;;;0.80;99.90;;;;;;5099714;27;20038;-85
2023/03/09 01:33:09;;;;;;;17.80;9.27;;;0.80;99.90;;;;;;5111902;28;20538;-85
2023/03/09 01:35:37;;;;;;;17.13;8.63;;;0.70;99.90;;;;;;5129976;27;20031;-85
2023/03/09 01:38:02;;;;;;;15.60;9.20;;;0.70;99.90;;;;;;5088737;28;20070;-84
2023/03/09 01:40:28;;;;;;;16.10;9.70;;;0.70;99.90;;;;;;5129467;27;20603;-85
2023/03/09 01:43:00;;;;;;;16.23;9.03;;;0.60;99.90;;;;;;5110698;27;20032;-85
2023/03/09 01:45:25;;;;;;;15.70;8.97;;;0.60;99.90;;;;;;5114548;27;20032;-85
2023/03/09 01:47:52;;;;;;;16.10;9.53;;;0.60;99.90;;;;;;5126661;27;20032;-85
2023/03/09 01:50:21;;;;;;;17.90;9.47;;;0.50;99.90;;;;;;5112625;27;20039;-85
2023/03/09 01:52:49;;;;;;;16.93;9.50;;;0.50;99.90;;;;;;5104292;27;20047;-85
2023/03/09 01:55:21;;;;;;;16.93;9.43;;;0.50;99.90;;;;;;5111917;27;20043;-85
2023/03/09 01:57:48;;;;;;;20.67;10.07;;;0.50;99.90;;;;;;5089703;28;20043;-85
2023/03/09 02:00:20;;;;;;;16.90;9.50;;;0.40;99.90;;;;;;5112203;27;20031;-84
2023/03/09 02:02:51;;;;;;;15.63;9.40;;;0.40;99.90;;;;;;5085325;28;20042;-86
2023/03/09 02:05:23;;;;;;;15.87;9.60;;;0.40;99.90;;;;;;5117957;27;20039;-85
2023/03/09 02:07:51;;;;;;;18.00;9.87;;;0.40;99.90;;;;;;5109495;27;20024;-85
2023/03/09 02:10:29;;;;;;;17.57;10.07;;;0.40;99.90;;;;;;5122606;27;20138;-85
2023/03/09 02:12:58;;;;;;;17.10;9.90;;;0.40;99.90;;;;;;5091453;27;20039;-85
2023/03/09 02:15:24;;;;;;;16.17;9.73;;;0.40;99.90;;;;;;5110610;27;20038;-85
2023/03/09 02:17:50;;;;;;;18.40;9.97;;;0.40;99.90;;;;;;5096945;27;20035;-85
2023/03/09 02:20:28;;;;;;;18.00;9.43;;;0.40;99.90;;;;;;5109331;27;20039;-84
2023/03/09 02:22:55;;;;;;;14.93;8.70;;;0.40;99.90;;;;;;5075552;28;20036;-85
2023/03/09 02:25:37;;;;;;;16.10;9.67;;;0.40;99.90;;;;;;5105046;27;20136;-85
2023/03/09 02:28:05;;;;;;;16.90;8.97;;;0.40;99.90;;;;;;5096274;28;20124;-85
2023/03/09 02:30:34;;;;;;;15.47;9.13;;;0.40;99.90;;;;;;5115773;27;20053;-85
2023/03/09 02:33:11;;;;;;;16.87;9.10;;;0.40;99.90;;;;;;5098600;27;20458;-85
2023/03/09 02:35:37;;;;;;;19.30;9.90;;;0.50;99.90;;;;;;5092229;28;20122;-85
2023/03/09 02:38:03;;;;;;;16.77;9.73;;;0.50;99.90;;;;;;5108540;27;20542;-85
2023/03/09 02:40:33;;;;;;;17.07;9.47;;;0.50;99.90;;;;;;5105173;27;20077;-85
2023/03/09 02:43:00;;;;;;;16.37;9.40;;;0.50;99.90;;;;;;5099648;27;20058;-85
2023/03/09 02:45:27;;;;;;;17.90;10.10;;;0.50;99.90;;;;;;5110798;27;20096;-85
2023/03/09 02:47:55;;;;;;;16.83;9.30;;;0.50;99.90;;;;;;5122398;27;20395;-85
2023/03/09 02:50:20;;;;;;;16.07;9.20;;;0.50;99.90;;;;;;5087212;28;20478;-85
2023/03/09 02:52:46;;;;;;;16.97;9.20;;;0.50;99.90;;;;;;5106340;28;20036;-85
2023/03/09 02:55:12;;;;;;;16.03;9.33;;;0.50;99.90;;;;;;5107602;27;22271;-85
2023/03/09 02:57:37;;;;;;;17.63;10.00;;;0.50;99.90;;;;;;5111664;27;20054;-85
2023/03/09 03:00:08;;;;;;;15.10;9.40;;;0.50;99.90;;;;;;5100634;27;20434;-84
2023/03/09 03:02:33;;;;;;;19.07;10.37;;;0.50;99.90;;;;;;5098343;28;20028;-85
2023/03/09 03:04:59;;;;;;;18.50;10.37;;;0.60;99.90;;;;;;5094358;28;20043;-85
2023/03/09 03:07:24;;;;;;;18.43;10.80;;;0.60;99.90;;;;;;5094892;28;20039;-85
2023/03/09 03:09:51;;;;;;;18.43;10.83;;;0.60;99.90;;;;;;5089276;28;20491;-85
2023/03/09 03:12:16;;;;;;;17.17;10.00;;;0.60;99.90;;;;;;5116193;27;20059;-84
2023/03/09 03:14:42;;;;;;;16.53;10.10;;;0.60;99.90;;;;;;5110522;27;20035;-85
2023/03/09 03:17:07;;;;;;;17.53;10.27;;;0.60;99.90;;;;;;5090868;27;20039;-84
2023/03/09 03:19:33;;;;;;;20.30;9.80;;;0.70;99.90;;;;;;5094454;28;20131;-85
2023/03/09 03:21:58;;;;;;;18.97;11.07;;;0.70;99.90;;;;;;5093134;28;20119;-85
2023/03/09 03:24:24;;;;;;;18.77;10.30;;;0.70;99.90;;;;;;5106385;27;20050;-85
2023/03/09 03:26:49;;;;;;;16.07;9.53;;;0.70;99.90;;;;;;5090793;28;20070;-85
2023/03/09 03:29:15;;;;;;;20.27;10.80;;;0.70;99.90;;;;;;5112838;27;20043;-85
2023/03/09 03:31:40;;;;;;;20.97;11.23;;;0.60;99.90;;;;;;5088670;28;20043;-86
2023/03/09 03:34:06;;;;;;;19.23;10.50;;;0.60;99.90;;;;;;5110270;28;20090;-85
2023/03/09 03:36:32;;;;;;;19.47;11.43;;;0.60;99.90;;;;;;5090788;28;20043;-85
2023/03/09 03:38:57;;;;;;;21.30;12.10;;;0.70;99.90;;;;;;5106945;28;20040;-84
2023/03/09 03:41:23;;;;;;;22.87;11.73;;;0.60;99.90;;;;;;5080564;28;20423;-84
2023/03/09 03:43:48;;;;;;;22.97;11.40;;;0.70;99.90;;;;;;5104692;28;20038;-85
2023/03/09 03:46:14;;;;;;;21.53;11.53;;;0.70;99.90;;;;;;5087075;28;20481;-85
2023/03/09 03:48:42;;;;;;;22.57;12.00;;;0.70;99.90;;;;;;5110840;27;20035;-85
2023/03/09 03:51:08;;;;;;;24.00;11.90;;;0.70;99.90;;;;;;5112376;27;20044;-85
2023/03/09 03:53:34;;;;;;;26.27;12.37;;;0.70;99.90;;;;;;5092974;28;20414;-84
2023/03/09 03:56:00;;;;;;;23.40;12.67;;;0.70;99.90;;;;;;5112760;27;20551;-85
2023/03/09 03:58:26;;;;;;;24.73;13.07;;;0.70;99.90;;;;;;5089735;28;20126;-85
2023/03/09 04:00:52;;;;;;;23.13;12.17;;;0.70;99.90;;;;;;5110263;27;20115;-85
2023/03/09 04:03:17;;;;;;;23.13;11.90;;;0.70;99.90;;;;;;5103121;28;20039;-85
2023/03/09 04:05:43;;;;;;;22.63;12.00;;;0.60;99.90;;;;;;5087229;28;20055;-85
2023/03/09 04:08:08;;;;;;;23.90;12.67;;;0.70;99.90;;;;;;5082643;28;20036;-85
2023/03/09 04:10:37;;;;;;;26.00;13.10;;;0.60;99.90;;;;;;5099295;28;20078;-85
2023/03/09 04:13:02;;;;;;;24.27;12.97;;;0.60;99.90;;;;;;5092577;28;20127;-85
2023/03/09 04:15:28;;;;;;;25.67;12.43;;;0.60;99.90;;;;;;5088334;27;20046;-85
2023/03/09 04:17:53;;;;;;;22.13;12.07;;;0.60;99.90;;;;;;5087591;28;20039;-84
2023/03/09 04:20:19;;;;;;;22.77;12.53;;;0.60;99.90;;;;;;5121801;27;20066;-85
2023/03/09 04:22:48;;;;;;;25.73;13.43;;;0.50;99.90;;;;;;5100549;28;20615;-84
2023/03/09 04:25:15;;;;;;;22.53;11.30;;;0.50;99.90;;;;;;5100338;28;20115;-85
2023/03/09 04:27:40;;;;;;;24.77;13.03;;;0.50;99.90;;;;;;5107182;28;20409;-85
2023/03/09 04:30:07;;;;;;;24.47;13.07;;;0.50;99.90;;;;;;5109292;27;20126;-85
2023/03/09 04:32:33;;;;;;;23.60;12.53;;;0.50;99.90;;;;;;5110368;28;20035;-84
2023/03/09 04:34:58;;;;;;;26.47;12.83;;;0.50;99.90;;;;;;5105377;28;20050;-85
2023/03/09 04:37:24;;;;;;;26.63;13.13;;;0.50;99.90;;;;;;5093462;28;20050;-85
2023/03/09 04:39:49;;;;;;;30.17;13.97;;;0.50;99.90;;;;;;5100776;28;20035;-85
2023/03/09 04:42:15;;;;;;;25.67;13.90;;;0.50;99.90;;;;;;5093416;28;20484;-85
2023/03/09 04:44:40;;;;;;;24.27;12.97;;;0.50;99.90;;;;;;5111921;27;20570;-84
2023/03/09 04:47:06;;;;;;;28.87;14.60;;;0.50;99.90;;;;;;5102929;28;20035;-85
2023/03/09 04:49:31;;;;;;;27.23;14.27;;;0.50;99.90;;;;;;5111161;28;20032;-84
2023/03/09 04:51:57;;;;;;;27.30;14.53;;;0.40;99.90;;;;;;5108190;28;20127;-85
2023/03/09 04:54:23;;;;;;;29.37;15.03;;;0.40;99.90;;;;;;5106505;28;20066;-84
2023/03/09 04:56:48;;;;;;;29.73;14.23;;;0.40;99.90;;;;;;5103338;28;20110;-85
2023/03/09 04:59:14;;;;;;;26.13;14.20;;;0.50;99.90;;;;;;5091611;28;20036;-85
2023/03/09 05:01:39;;;;;;;26.03;13.10;;;0.40;99.90;;;;;;5102247;28;20127;-85
2023/03/09 05:04:05;;;;;;;27.90;13.50;;;0.40;99.90;;;;;;5104077;28;20490;-85
2023/03/09 05:06:30;;;;;;;26.23;13.47;;;0.40;99.90;;;;;;5093599;28;20491;-84
2023/03/09 05:08:58;;;;;;;27.07;13.50;;;0.40;99.90;;;;;;5104440;28;20084;-86
2023/03/09 05:11:23;;;;;;;25.80;13.53;;;0.40;99.90;;;;;;5110149;28;20067;-85
2023/03/09 05:13:49;;;;;;;26.20;13.17;;;0.50;99.90;;;;;;5110757;27;20112;-85
2023/03/09 05:16:14;;;;;;;27.23;13.20;;;0.50;99.90;;;;;;5092786;28;20036;-85
2023/03/09 05:18:40;;;;;;;24.97;12.47;;;0.40;99.90;;;;;;5108780;28;20077;-85
2023/03/09 05:21:07;;;;;;;23.07;12.10;;;0.40;99.90;;;;;;5107430;28;20043;-84
2023/03/09 05:23:34;;;;;;;22.57;12.33;;;0.40;99.90;;;;;;5104457;28;20127;-85
2023/03/09 05:26:01;;;;;;;20.53;11.93;;;0.40;99.90;;;;;;5092624;28;20062;-86
2023/03/09 05:28:27;;;;;;;22.43;12.57;;;0.50;99.90;;;;;;5120084;27;20046;-85
2023/03/09 05:30:53;;;;;;;24.77;12.43;;;0.40;99.90;;;;;;5103913;27;20106;-85
2023/03/09 05:33:19;;;;;;;22.60;11.77;;;0.40;99.90;;;;;;5109292;28;20110;-85
2023/03/09 05:35:44;;;;;;;24.70;13.30;;;0.40;99.90;;;;;;5107341;27;20116;-86
2023/03/09 05:38:10;;;;;;;22.30;12.63;;;0.40;99.90;;;;;;5094892;28;20035;-85
2023/03/09 05:40:35;;;;;;;26.40;13.30;;;0.40;99.90;;;;;;5118493;27;20088;-85
2023/03/09 05:43:01;;;;;;;24.87;12.30;;;0.40;99.90;;;;;;5108791;28;20043;-85
2023/03/09 05:45:27;;;;;;;23.53;12.53;;;0.40;99.90;;;;;;5136211;27;20036;-86
2023/03/09 05:47:52;;;;;;;23.43;12.73;;;0.30;99.90;;;;;;5089551;28;20039;-85
2023/03/09 05:50:18;;;;;;;26.23;12.83;;;0.40;99.90;;;;;;5090477;28;20038;-85
2023/03/09 05:52:44;;;;;;;23.70;13.03;;;0.40;99.90;;;;;;5130242;27;20036;-86
2023/03/09 05:55:09;;;;;;;24.47;12.57;;;0.40;99.90;;;;;;5133024;27;20059;-85
2023/03/09 05:57:35;;;;;;;23.37;12.50;;;0.40;99.90;;;;;;5102716;27;20035;-85
2023/03/09 06:00:01;;;;;;;26.03;13.17;;;0.40;99.90;;;;;;5110036;28;20027;-85
2023/03/09 06:02:26;;;;;;;21.70;12.27;;;0.40;99.90;;;;;;5114172;27;20067;-85
2023/03/09 06:04:52;;;;;;;24.83;13.23;;;0.40;99.90;;;;;;5108295;27;20724;-86
2023/03/09 06:07:18;;;;;;;24.63;12.87;;;0.40;99.90;;;;;;5110222;27;20033;-86
2023/03/09 06:09:44;;;;;;;24.67;13.33;;;0.40;99.90;;;;;;5112968;27;20043;-86
2023/03/09 06:12:09;;;;;;;20.43;12.67;;;0.50;99.90;;;;;;5100955;27;20036;-85
2023/03/09 06:14:35;;;;;;;24.43;13.40;;;0.40;99.90;;;;;;5104937;28;20032;-86
2023/03/09 06:17:01;;;;;;;22.77;12.97;;;0.40;99.90;;;;;;5107823;28;20525;-85
2023/03/09 06:19:27;;;;;;;23.00;13.23;;;0.50;99.90;;;;;;5075664;28;20579;-86
2023/03/09 06:21:52;;;;;;;21.63;13.13;;;0.50;99.90;;;;;;5141608;27;20032;-85
2023/03/09 06:24:18;;;;;;;23.40;13.40;;;0.50;99.90;;;;;;5108444;27;20070;-85
2023/03/09 06:26:44;;;;;;;26.43;13.43;;;0.50;99.90;;;;;;5107179;27;20038;-85
2023/03/09 06:29:09;;;;;;;24.67;13.13;;;0.50;99.90;;;;;;5111659;28;20168;-86
2023/03/09 06:31:35;;;;;;;23.43;12.27;;;0.50;99.90;;;;;;5109363;28;20042;-85
2023/03/09 06:34:00;;;;;;;22.80;12.50;;;0.50;99.90;;;;;;5109999;28;20036;-85
2023/03/09 06:36:26;;;;;;;22.83;12.90;;;0.60;99.90;;;;;;5110736;27;20031;-85
2023/03/09 06:38:52;;;;;;;22.37;12.80;;;0.60;99.90;;;;;;5105759;28;20039;-85
2023/03/09 06:41:21;;;;;;;21.40;12.83;;;0.60;99.90;;;;;;5095355;28;20039;-85
2023/03/09 06:43:52;;;;;;;23.87;13.13;;;0.60;99.90;;;;;;5106692;28;20063;-85
2023/03/09 06:46:18;;;;;;;21.67;13.20;;;0.70;99.90;;;;;;5096734;28;20055;-85
2023/03/09 06:48:43;;;;;;;24.37;12.90;;;0.60;99.90;;;;;;5107564;27;20135;-85
2023/03/09 06:51:09;;;;;;;22.60;13.10;;;0.60;99.90;;;;;;5103973;28;20122;-85
2023/03/09 06:53:34;;;;;;;23.43;12.87;;;0.60;99.90;;;;;;5094220;28;20180;-85
2023/03/09 06:56:00;;;;;;;23.87;13.63;;;0.60;99.90;;;;;;5086844;28;20040;-85
2023/03/09 06:58:26;;;;;;;24.77;13.97;;;0.60;99.90;;;;;;5116087;27;20165;-85
2023/03/09 07:00:52;;;;;;;20.40;12.33;;;0.60;99.90;;;;;;5103685;28;20134;-85
2023/03/09 07:03:18;;;;;;;22.73;12.73;;;0.60;99.90;;;;;;5093102;28;20050;-85
2023/03/09 07:05:44;;;;;;;23.00;13.30;;;0.60;99.90;;;;;;5124879;27;20287;-85
2023/03/09 07:08:10;;;;;;;23.40;13.17;;;0.60;99.90;;;;;;5085396;28;20101;-85
2023/03/09 07:10:35;;;;;;;21.07;12.57;;;0.70;99.90;;;;;;5100509;28;20047;-85
2023/03/09 07:13:01;;;;;;;23.17;12.77;;;0.70;99.90;;;;;;5087488;28;20036;-85
2023/03/09 07:15:26;;;;;;;21.70;13.00;;;0.80;99.90;;;;;;5087435;28;20028;-85
2023/03/09 07:17:52;;;;;;;22.10;13.40;;;0.80;99.90;;;;;;5092038;28;20031;-85
2023/03/09 07:20:17;;;;;;;22.80;12.77;;;0.90;99.90;;;;;;5086595;28;20067;-85
2023/03/09 07:22:43;;;;;;;21.73;12.63;;;1.00;99.90;;;;;;5106574;27;20028;-85
2023/03/09 07:25:09;;;;;;;21.67;12.57;;;1.00;99.90;;;;;;5109351;28;20506;-85
2023/03/09 07:27:34;;;;;;;21.73;12.87;;;1.10;99.90;;;;;;5110190;28;20063;-85
2023/03/09 07:30:00;;;;;;;23.30;12.50;;;1.20;99.90;;;;;;5105478;27;20050;-86
2023/03/09 07:32:25;;;;;;;19.57;12.37;;;1.30;99.90;;;;;;5093281;28;20122;-86
2023/03/09 07:34:51;;;;;;;20.07;11.80;;;1.40;99.90;;;;;;5102399;28;20099;-85
2023/03/09 07:37:16;;;;;;;19.70;11.87;;;1.40;99.90;;;;;;5093843;27;21576;-85
2023/03/09 07:39:42;;;;;;;20.90;12.07;;;1.40;99.90;;;;;;5110301;28;20398;-85
2023/03/09 07:42:07;;;;;;;20.60;12.03;;;1.70;99.90;;;;;;5109290;27;20095;-85
2023/03/09 07:44:33;;;;;;;19.37;11.70;;;1.30;99.90;;;;;;5107850;27;20532;-87
2023/03/09 07:46:59;;;;;;;20.40;11.73;;;1.30;99.90;;;;;;5105351;27;20540;-86
2023/03/09 07:49:24;;;;;;;21.40;11.50;;;1.30;99.90;;;;;;5102908;27;20684;-85
2023/03/09 07:51:50;;;;;;;19.73;11.43;;;1.30;99.90;;;;;;5100066;27;20514;-85
2023/03/09 07:54:15;;;;;;;19.53;11.20;;;1.40;99.90;;;;;;5111599;27;20075;-86
2023/03/09 07:56:42;;;;;;;20.80;11.77;;;1.40;99.90;;;;;;5105590;28;20452;-85
2023/03/09 07:59:15;;;;;;;19.97;12.20;;;1.50;99.90;;;;;;5089311;27;20043;-86
2023/03/09 08:01:41;;;;;;;17.48;10.85;;;1.50;99.90;;;;;;5093523;28;20418;-85
2023/03/09 08:04:06;;;;;;;18.00;11.07;;;1.70;99.90;;;;;;5108041;28;20044;-86
2023/03/09 08:06:32;;;;;;;18.53;11.73;;;1.80;99.90;;;;;;5125636;27;20039;-86
2023/03/09 08:08:57;;;;;;;19.47;11.67;;;1.80;99.90;;;;;;5103943;28;20040;-85
2023/03/09 08:11:23;;;;;;;19.70;11.60;;;1.90;99.90;;;;;;5097746;28;20036;-86
2023/03/09 08:13:48;;;;;;;19.60;11.63;;;1.90;99.90;;;;;;5111375;27;20040;-86
2023/03/09 08:16:14;;;;;;;16.23;10.30;;;2.00;99.90;;;;;;5096037;28;20230;-86
2023/03/09 08:18:40;;;;;;;19.63;11.37;;;2.10;99.90;;;;;;5093278;28;20084;-85
2023/03/09 08:21:11;;;;;;;18.63;11.33;;;2.20;99.90;;;;;;5108745;28;20039;-85
2023/03/09 08:23:39;;;;;;;17.93;11.03;;;2.20;99.90;;;;;;5110115;28;20084;-85
2023/03/09 08:26:06;;;;;;;17.80;11.13;;;2.40;99.90;;;;;;5093877;28;20115;-85
2023/03/09 08:28:32;;;;;;;17.47;10.10;;;2.30;99.90;;;;;;5099477;28;20035;-85
2023/03/09 08:30:58;;;;;;;16.97;10.50;;;2.30;99.90;;;;;;5087855;28;20032;-86
2023/03/09 08:33:25;;;;;;;17.35;10.88;;;2.30;99.90;;;;;;5091756;28;20031;-86
2023/03/09 08:35:50;;;;;;;16.27;9.87;;;2.30;99.90;;;;;;5104596;28;20410;-85
2023/03/09 08:38:16;;;;;;;18.37;11.10;;;2.30;99.90;;;;;;5085573;28;20031;-85
2023/03/09 08:40:43;;;;;;;17.87;10.33;;;2.30;99.90;;;;;;5110699;28;20036;-85
2023/03/09 08:43:09;;;;;;;16.93;10.13;;;2.30;99.90;;;;;;5094011;28;20035;-85
2023/03/09 08:45:34;;;;;;;13.77;8.73;;;2.40;99.90;;;;;;5099841;28;20031;-84
2023/03/09 08:48:00;;;;;;;13.70;9.23;;;2.40;99.90;;;;;;5085716;28;20570;-85
2023/03/09 08:50:25;;;;;;;18.07;10.20;;;2.50;99.90;;;;;;5110682;28;20044;-85
2023/03/09 08:52:51;;;;;;;15.88;9.07;;;2.60;99.90;;;;;;5109009;28;20043;-85
2023/03/09 08:55:16;;;;;;;13.73;8.63;;;2.60;99.90;;;;;;5107421;28;20065;-85
2023/03/09 08:57:42;;;;;;;13.33;8.40;;;2.90;99.90;;;;;;5108806;28;20501;-85
2023/03/09 09:00:10;;;;;;;13.47;8.20;;;2.80;99.90;;;;;;5111244;28;20051;-85
2023/03/09 09:02:36;;;;;;;13.48;8.57;;;3.00;99.90;;;;;;5097304;28;20036;-85
2023/03/09 09:05:03;;;;;;;12.98;8.55;;;3.10;99.90;;;;;;5113630;28;20035;-85
2023/03/09 09:07:29;;;;;;;13.13;8.43;;;3.30;99.90;;;;;;5114351;28;20123;-85
2023/03/09 09:09:55;;;;;;;12.93;8.52;;;3.40;99.90;;;;;;5114453;28;20047;-85
2023/03/09 09:12:21;;;;;;;13.15;8.30;;;3.40;99.90;;;;;;5089172;28;20127;-86
2023/03/09 09:14:47;;;;;;;12.50;8.07;;;3.50;99.90;;;;;;5148161;27;20099;-86
2023/03/09 09:17:13;;;;;;;10.98;7.53;;;3.70;99.90;;;;;;5096797;28;20039;-86
2023/03/09 09:19:40;;;;;;;12.98;8.15;;;3.60;99.90;;;;;;5093619;28;20075;-86
2023/03/09 09:22:06;;;;;;;12.10;7.25;;;3.60;99.90;;;;;;5091107;28;20031;-86
2023/03/09 09:24:36;;;;;;;12.32;7.72;;;3.60;99.90;;;;;;5129719;27;20100;-86
2023/03/09 09:27:03;;;;;;;11.00;7.35;;;3.70;99.90;;;;;;5103904;27;20085;-86
2023/03/09 09:29:28;;;;;;;12.73;7.97;;;4.40;99.90;;;;;;5096523;28;20343;-85
2023/03/09 09:31:54;;;;;;;13.65;7.47;;;3.90;99.90;;;;;;5113595;28;20036;-86
2023/03/09 09:34:21;;;;;;;11.40;7.68;;;4.10;99.90;;;;;;5126721;27;20046;-86
2023/03/09 09:36:47;;;;;;;12.73;7.30;;;4.00;99.90;;;;;;5116005;27;20039;-86
2023/03/09 09:39:13;;;;;;;11.93;7.47;;;4.00;99.90;;;;;;5106623;28;20152;-85
2023/03/09 09:41:50;;;;;;;10.35;7.03;;;4.00;99.90;;;;;;5114742;27;20043;-85
2023/03/09 09:44:21;;;;;;;9.90;6.70;;;3.90;99.90;;;;;;5096846;28;20035;-86
2023/03/09 09:46:50;;;;;;;12.18;7.35;;;3.80;99.90;;;;;;5110577;28;20036;-85
2023/03/09 09:49:25;;;;;;;11.82;7.15;;;3.80;99.90;;;;;;5092814;28;20036;-86
2023/03/09 09:51:55;;;;;;;11.25;7.30;;;4.10;99.90;;;;;;5114288;27;20042;-87
2023/03/09 09:54:26;;;;;;;11.57;7.45;;;4.40;99.90;;;;;;5112019;28;20070;-86
2023/03/09 09:57:02;;;;;;;11.38;7.97;;;4.70;99.90;;;;;;5133317;27;20043;-85
2023/03/09 09:59:39;;;;;;;11.65;7.65;;;4.90;99.90;;;;;;5097470;28;20108;-85
2023/03/09 10:02:07;;;;;;;9.88;7.15;;;5.10;99.90;;;;;;5117696;27;20076;-86
2023/03/09 10:04:51;;;;;;;10.43;6.97;;;5.10;99.90;;;;;;5109744;28;20048;-86
2023/03/09 10:07:19;;;;;;;10.30;7.30;;;5.10;99.90;;;;;;5092127;28;20036;-86
2023/03/09 10:09:49;;;;;;;10.98;6.90;;;5.00;99.90;;;;;;5096505;28;20035;-85
2023/03/09 10:12:16;;;;;;;11.50;7.28;;;4.80;99.90;;;;;;5095114;28;20587;-86
2023/03/09 10:14:53;;;;;;;10.70;7.35;;;4.60;99.90;;;;;;5112305;28;20084;-86
2023/03/09 10:17:39;;;;;;;10.75;7.22;;;4.40;99.90;;;;;;5076250;28;20044;-85
2023/03/09 10:20:23;;;;;;;12.38;7.68;;;4.10;99.90;;;;;;5092906;28;20115;-85
2023/03/09 10:22:52;;;;;;;11.52;7.32;;;4.00;99.90;;;;;;5076152;28;20028;-86
2023/03/09 10:25:20;;;;;;;10.98;7.32;;;4.00;99.90;;;;;;5107986;28;20111;-85
2023/03/09 10:27:55;;;;;;;10.27;6.95;;;4.00;99.90;;;;;;5092996;28;20126;-86
2023/03/09 10:30:42;;;;;;;9.82;6.68;;;4.10;99.90;;;;;;5095443;27;20042;-85
2023/03/09 10:33:08;;;;;;;11.50;6.93;;;4.30;99.90;;;;;;5107221;28;20040;-86
2023/03/09 10:36:00;;;;;;;9.00;6.32;;;4.60;99.90;;;;;;5086954;27;20521;-85
2023/03/09 10:38:26;;;;;;;9.57;6.78;;;4.80;99.90;;;;;;5113490;27;20059;-87
2023/03/09 10:40:54;;;;;;;9.70;6.28;;;4.80;99.90;;;;;;5092873;28;20031;-85
2023/03/09 10:43:29;;;;;;;8.05;5.70;;;4.80;99.90;;;;;;5111986;28;20042;-86
2023/03/09 10:46:04;;;;;;;8.48;5.80;;;4.80;99.90;;;;;;5097721;28;20035;-86
2023/03/09 10:48:30;;;;;;;8.60;5.68;;;4.80;99.90;;;;;;5117733;27;20080;-86
2023/03/09 10:51:01;;;;;;;7.60;5.30;;;4.70;99.90;;;;;;5109382;28;20119;-86
2023/03/09 10:53:41;;;;;;;9.02;6.10;;;4.70;99.90;;;;;;5109210;28;20043;-85
2023/03/09 10:56:23;;;;;;;8.05;5.78;;;4.70;99.90;;;;;;5102446;28;20043;-85
2023/03/09 10:59:06;;;;;;;8.30;6.00;;;4.80;99.90;;;;;;5103856;27;20126;-86
2023/03/09 11:01:35;;;;;;;10.57;6.35;;;4.80;99.90;;;;;;5090676;28;20546;-85
2023/03/09 11:04:01;;;;;;;8.10;5.65;;;4.90;99.90;;;;;;5097410;28;20517;-86
2023/03/09 11:06:33;;;;;;;7.60;5.25;;;4.90;99.90;;;;;;5094246;27;20450;-85
2023/03/09 11:09:14;;;;;;;8.27;5.55;;;4.90;99.90;;;;;;5104861;28;20460;-85
2023/03/09 11:11:41;;;;;;;8.40;6.18;;;4.80;99.90;;;;;;5084776;28;20044;-85
2023/03/09 11:14:31;;;;;;;8.50;5.88;;;4.80;99.90;;;;;;5099119;28;20096;-85
2023/03/09 11:16:59;;;;;;;10.02;6.30;;;4.80;99.90;;;;;;5117606;27;20040;-85
2023/03/09 11:19:25;;;;;;;8.80;6.05;;;4.90;99.90;;;;;;5112498;28;20036;-85
2023/03/09 11:21:57;;;;;;;9.65;6.00;;;5.20;99.90;;;;;;5109558;27;20028;-85
2023/03/09 11:24:38;;;;;;;7.85;5.30;;;4.80;99.90;;;;;;5078740;28;20036;-85
2023/03/09 11:27:27;;;;;;;7.00;5.43;;;4.90;99.90;;;;;;5101737;28;20039;-85
2023/03/09 11:30:06;;;;;;;9.25;6.25;;;4.90;99.90;;;;;;5104621;28;20035;-85
2023/03/09 11:32:32;;;;;;;8.48;6.07;;;5.20;99.90;;;;;;5094825;28;20136;-85
2023/03/09 11:34:59;;;;;;;9.73;6.00;;;5.30;99.90;;;;;;5091116;28;20079;-86
2023/03/09 11:37:46;;;;;;;9.75;6.22;;;5.50;99.90;;;;;;5120484;27;20125;-86
2023/03/09 11:40:21;;;;;;;10.45;6.97;;;5.40;99.90;;;;;;5114000;27;20075;-85
2023/03/09 11:42:56;;;;;;;9.65;6.72;;;5.40;99.90;;;;;;5088130;28;20513;-85
2023/03/09 11:45:27;;;;;;;9.40;6.30;;;5.40;99.90;;;;;;5110794;27;20023;-85
2023/03/09 11:48:01;;;;;;;9.80;6.72;;;5.40;99.90;;;;;;5112939;27;20459;-85
2023/03/09 11:50:38;;;;;;;9.00;6.70;;;5.40;99.90;;;;;;5093435;28;20518;-86
2023/03/09 11:53:09;;;;;;;8.75;6.60;;;5.40;99.90;;;;;;5115486;27;20552;-85
2023/03/09 11:55:40;;;;;;;9.75;6.47;;;5.30;99.90;;;;;;5091758;27;20035;-86
2023/03/09 11:58:11;;;;;;;8.82;6.13;;;5.30;99.90;;;;;;5116360;27;20176;-85
2023/03/09 12:00:44;;;;;;;8.52;6.18;;;5.40;99.90;;;;;;5110998;27;20036;-85
2023/03/09 12:03:16;;;;;;;9.10;6.25;;;5.20;99.90;;;;;;5093264;28;20118;-85
2023/03/09 12:05:46;;;;;;;9.57;6.63;;;5.30;99.90;;;;;;5111098;28;20071;-86
2023/03/09 12:08:31;;;;;;;11.27;7.25;;;5.20;99.90;;;;;;5092422;28;20035;-85
2023/03/09 12:11:05;;;;;;;9.23;6.65;;;5.30;99.90;;;;;;5092894;28;20038;-86
2023/03/09 12:13:36;;;;;;;8.18;6.00;;;5.90;99.90;;;;;;5109938;28;20044;-85
2023/03/09 12:16:04;;;;;;;7.90;5.88;;;5.30;99.90;;;;;;5133556;27;20453;-86
2023/03/09 12:18:33;;;;;;;9.77;6.60;;;5.30;99.90;;;;;;5111783;27;20035;-86
2023/03/09 12:21:01;;;;;;;9.57;6.50;;;5.30;99.90;;;;;;5092650;28;20035;-86
2023/03/09 12:23:35;;;;;;;8.27;6.07;;;5.20;99.90;;;;;;5116267;28;20046;-86
2023/03/09 12:26:04;;;;;;;9.70;6.32;;;5.30;99.90;;;;;;5089593;28;20058;-86
2023/03/09 12:28:30;;;;;;;8.45;6.53;;;5.30;99.90;;;;;;5107140;27;20032;-86
2023/03/09 12:30:57;;;;;;;9.73;6.15;;;5.40;99.90;;;;;;5085096;28;20070;-86
2023/03/09 12:33:41;;;;;;;7.35;5.65;;;5.30;99.90;;;;;;5104502;28;20066;-86
2023/03/09 12:36:27;;;;;;;7.55;5.47;;;5.30;99.90;;;;;;5106936;28;20406;-86
2023/03/09 12:39:29;;;;;;;7.90;5.45;;;5.20;99.90;;;;;;5106441;28;20490;-86
2023/03/09 12:42:26;;;;;;;7.85;5.50;;;5.20;99.90;;;;;;5128888;27;20043;-86
2023/03/09 12:44:52;;;;;;;7.75;5.90;;;5.10;99.90;;;;;;5107592;28;20185;-86
2023/03/09 12:47:25;;;;;;;9.00;5.30;;;5.10;99.90;;;;;;5112093;28;20122;-85